createdAt,value
2023-02-06T00:00:34.194Z,0.60
2023-02-06T00:01:34.182Z,1.00
2023-02-06T00:02:34.231Z,0.60
2023-02-06T00:03:34.180Z,1.10
2023-02-06T00:04:34.151Z,0.40
2023-02-06T00:05:34.533Z,1.20
2023-02-06T00:06:34.125Z,0.70
2023-02-06T00:07:34.125Z,1.70
2023-02-06T00:08:34.093Z,1.30
2023-02-06T00:09:34.115Z,0.90
2023-02-06T00:10:34.130Z,0.70
2023-02-06T00:11:34.114Z,0.90
2023-02-06T00:12:34.040Z,0.70
2023-02-06T00:13:34.049Z,0.70
2023-02-06T00:14:34.037Z,1.60
2023-02-06T00:15:34.378Z,1.20
2023-02-06T00:16:34.040Z,0.60
2023-02-06T00:17:34.020Z,0.50
2023-02-06T00:18:34.009Z,0.40
2023-02-06T00:19:33.993Z,0.80
2023-02-06T00:20:33.994Z,0.60
2023-02-06T00:21:33.969Z,1.00
2023-02-06T00:22:33.957Z,0.70
2023-02-06T00:23:33.949Z,0.70
2023-02-06T00:24:33.946Z,0.40
2023-02-06T00:25:34.210Z,1.20
2023-02-06T00:26:33.944Z,0.50
2023-02-06T00:27:33.922Z,0.90
2023-02-06T00:28:33.881Z,0.60
2023-02-06T00:29:33.906Z,1.00
2023-02-06T00:30:33.939Z,0.30
2023-02-06T00:31:33.962Z,0.70
2023-02-06T00:32:33.921Z,0.70
2023-02-06T00:33:33.868Z,0.50
2023-02-06T00:34:33.784Z,1.40
2023-02-06T00:35:34.119Z,1.30
2023-02-06T00:36:33.803Z,0.70
2023-02-06T00:37:33.827Z,0.80
2023-02-06T00:38:33.825Z,1.10
2023-02-06T00:39:33.794Z,0.80
2023-02-06T00:40:33.784Z,0.80
2023-02-06T00:41:33.779Z,0.60
2023-02-06T00:42:33.750Z,0.80
2023-02-06T00:43:34.180Z,0.30
2023-02-06T00:44:33.727Z,0.70
2023-02-06T00:45:34.064Z,0.60
2023-02-06T00:46:33.769Z,0.50
2023-02-06T00:47:33.728Z,0.40
2023-02-06T00:48:33.706Z,0.40
2023-02-06T00:49:33.712Z,1.20
2023-02-06T00:50:33.680Z,0.60
2023-02-06T00:51:33.711Z,1.00
2023-02-06T00:52:33.641Z,0.50
2023-02-06T00:53:33.666Z,0.50
2023-02-06T00:54:33.650Z,0.60
2023-02-06T00:55:33.941Z,0.80
2023-02-06T00:56:33.627Z,0.60
2023-02-06T00:57:34.101Z,0.60
2023-02-06T00:58:33.613Z,0.40
2023-02-06T00:59:34.118Z,0.50
2023-02-06T01:00:33.564Z,0.40
2023-02-06T01:01:34.572Z,0.40
2023-02-06T01:02:33.614Z,0.30
2023-02-06T01:03:34.510Z,0.40
2023-02-06T01:04:33.528Z,0.50
2023-02-06T01:05:34.106Z,0.60
2023-02-06T01:06:33.497Z,0.50
2023-02-06T01:07:33.687Z,0.70
2023-02-06T01:08:33.499Z,0.60
2023-02-06T01:09:33.535Z,1.10
2023-02-06T01:10:33.450Z,0.50
2023-02-06T01:11:33.453Z,0.60
2023-02-06T01:12:33.431Z,0.40
2023-02-06T01:13:33.463Z,0.40
2023-02-06T01:14:33.428Z,0.60
2023-02-06T01:15:33.601Z,0.50
2023-02-06T01:16:33.410Z,1.20
2023-02-06T01:17:33.401Z,0.50
2023-02-06T01:18:33.381Z,1.00
2023-02-06T01:19:33.377Z,0.70
2023-02-06T01:20:33.362Z,1.30
2023-02-06T01:21:33.375Z,1.20
2023-02-06T01:22:33.322Z,0.60
2023-02-06T01:23:33.352Z,0.60
2023-02-06T01:24:33.341Z,0.20
2023-02-06T01:25:33.617Z,0.80
2023-02-06T01:26:33.309Z,0.30
2023-02-06T01:27:33.286Z,0.60
2023-02-06T01:28:33.279Z,0.70
2023-02-06T01:29:33.266Z,0.30
2023-02-06T01:30:33.273Z,0.70
2023-02-06T01:31:33.286Z,0.30
2023-02-06T01:32:33.218Z,0.30
2023-02-06T01:33:33.228Z,0.20
2023-02-06T01:34:33.224Z,0.50
2023-02-06T01:35:33.400Z,0.40
2023-02-06T01:36:33.201Z,0.50
2023-02-06T01:37:33.183Z,0.40
2023-02-06T01:38:33.211Z,0.80
2023-02-06T01:39:33.191Z,0.50
2023-02-06T01:40:33.179Z,0.50
2023-02-06T01:41:33.194Z,0.50
2023-02-06T01:42:33.126Z,0.30
2023-02-06T01:43:33.144Z,0.40
2023-02-06T01:44:33.134Z,0.40
2023-02-06T01:45:33.189Z,1.00
2023-02-06T01:46:33.143Z,0.60
2023-02-06T01:47:33.087Z,0.90
2023-02-06T01:48:33.086Z,0.40
2023-02-06T01:49:33.063Z,0.50
2023-02-06T01:50:33.074Z,0.90
2023-02-06T01:51:33.072Z,0.20
2023-02-06T01:52:33.020Z,0.30
2023-02-06T01:53:33.040Z,0.90
2023-02-06T01:54:33.004Z,0.50
2023-02-06T01:55:33.111Z,0.40
2023-02-06T01:56:33.015Z,1.00
2023-02-06T01:57:32.987Z,0.90
2023-02-06T01:58:33.056Z,0.40
2023-02-06T01:59:33.057Z,0.90
2023-02-06T02:00:33.066Z,0.60
2023-02-06T02:01:32.967Z,0.50
2023-02-06T02:02:32.944Z,0.90
2023-02-06T02:03:32.924Z,0.60
2023-02-06T02:04:32.916Z,0.70
2023-02-06T02:05:32.937Z,0.70
2023-02-06T02:06:32.881Z,0.40
2023-02-06T02:07:32.922Z,0.70
2023-02-06T02:08:32.867Z,0.40
2023-02-06T02:09:32.864Z,0.60
2023-02-06T02:10:32.845Z,0.30
2023-02-06T02:11:32.847Z,0.50
2023-02-06T02:12:32.838Z,1.50
2023-02-06T02:13:32.841Z,0.70
2023-02-06T02:14:32.812Z,0.70
2023-02-06T02:15:33.009Z,0.70
2023-02-06T02:16:32.869Z,0.70
2023-02-06T02:17:32.793Z,0.40
2023-02-06T02:18:32.775Z,0.60
2023-02-06T02:19:32.764Z,0.30
2023-02-06T02:20:32.748Z,0.70
2023-02-06T02:21:32.765Z,0.50
2023-02-06T02:22:32.757Z,0.50
2023-02-06T02:23:32.785Z,0.40
2023-02-06T02:24:32.710Z,0.60
2023-02-06T02:25:32.704Z,1.10
2023-02-06T02:26:32.705Z,0.60
2023-02-06T02:27:32.693Z,0.50
2023-02-06T02:28:32.658Z,1.00
2023-02-06T02:29:32.709Z,0.80
2023-02-06T02:30:32.719Z,0.60
2023-02-06T02:31:32.678Z,0.60
2023-02-06T02:32:32.616Z,1.60
2023-02-06T02:33:32.656Z,0.30
2023-02-06T02:34:32.624Z,0.80
2023-02-06T02:35:32.599Z,0.40
2023-02-06T02:36:32.608Z,0.80
2023-02-06T02:37:32.582Z,0.50
2023-02-06T02:38:32.580Z,0.40
2023-02-06T02:39:32.572Z,1.20
2023-02-06T02:40:32.563Z,0.40
2023-02-06T02:41:32.558Z,1.00
2023-02-06T02:42:32.526Z,1.00
2023-02-06T02:43:32.534Z,0.90
2023-02-06T02:44:32.507Z,0.40
2023-02-06T02:45:32.608Z,0.60
2023-02-06T02:46:32.486Z,0.50
2023-02-06T02:47:32.493Z,0.60
2023-02-06T02:48:32.408Z,0.60
2023-02-06T02:49:32.452Z,0.90
2023-02-06T02:50:32.436Z,0.70
2023-02-06T02:51:32.471Z,0.80
2023-02-06T02:52:32.422Z,0.30
2023-02-06T02:53:32.426Z,0.60
2023-02-06T02:54:32.394Z,0.40
2023-02-06T02:55:32.385Z,0.90
2023-02-06T02:56:32.388Z,0.40
2023-02-06T02:57:32.416Z,0.80
2023-02-06T02:58:32.374Z,0.40
2023-02-06T02:59:32.350Z,0.60
2023-02-06T03:00:32.356Z,0.80
2023-02-06T03:01:32.346Z,0.80
2023-02-06T03:02:32.342Z,0.50
2023-02-06T03:03:32.324Z,1.10
2023-02-06T03:04:32.289Z,0.40
2023-02-06T03:05:32.304Z,0.50
2023-02-06T03:06:32.306Z,0.50
2023-02-06T03:07:32.284Z,0.30
2023-02-06T03:08:32.278Z,0.70
2023-02-06T03:09:32.237Z,0.70
2023-02-06T03:10:32.245Z,0.70
2023-02-06T03:11:32.247Z,0.90
2023-02-06T03:12:32.222Z,0.80
2023-02-06T03:13:32.210Z,0.20
2023-02-06T03:14:32.229Z,0.80
2023-02-06T03:15:32.176Z,0.70
2023-02-06T03:16:32.240Z,0.70
2023-02-06T03:17:32.160Z,0.80
2023-02-06T03:18:32.180Z,0.50
2023-02-06T03:19:32.159Z,0.30
2023-02-06T03:20:32.180Z,0.70
2023-02-06T03:21:32.142Z,0.70
2023-02-06T03:22:32.121Z,0.40
2023-02-06T03:23:32.110Z,0.80
2023-02-06T03:24:32.236Z,0.50
2023-02-06T03:25:32.075Z,0.60
2023-02-06T03:26:32.067Z,0.30
2023-02-06T03:27:32.061Z,0.80
2023-02-06T03:28:38.608Z,0.70
2023-02-06T03:29:32.063Z,0.50
2023-02-06T03:30:32.057Z,0.60
2023-02-06T03:31:32.011Z,0.50
2023-02-06T03:32:32.008Z,0.50
2023-02-06T03:33:32.021Z,0.50
2023-02-06T03:34:32.034Z,0.50
2023-02-06T03:35:31.981Z,0.70
2023-02-06T03:36:32.010Z,0.70
2023-02-06T03:37:31.956Z,0.60
2023-02-06T03:38:31.954Z,0.30
2023-02-06T03:39:31.948Z,0.40
2023-02-06T03:40:31.957Z,0.50
2023-02-06T03:41:31.920Z,0.80
2023-02-06T03:42:31.950Z,0.90
2023-02-06T03:43:31.891Z,1.00
2023-02-06T03:44:31.927Z,0.50
2023-02-06T03:45:31.932Z,0.80
2023-02-06T03:46:31.875Z,0.60
2023-02-06T03:47:31.879Z,0.50
2023-02-06T03:48:31.842Z,0.40
2023-02-06T03:49:31.884Z,0.40
2023-02-06T03:50:31.838Z,0.60
2023-02-06T03:51:31.840Z,0.50
2023-02-06T03:52:31.812Z,0.50
2023-02-06T03:53:31.788Z,0.30
2023-02-06T03:54:31.799Z,0.30
2023-02-06T03:55:31.789Z,0.50
2023-02-06T03:56:31.761Z,0.70
2023-02-06T03:57:31.771Z,0.40
2023-02-06T03:58:31.754Z,0.50
2023-02-06T03:59:31.748Z,0.40
2023-02-06T04:00:31.738Z,0.50
2023-02-06T04:01:31.742Z,0.40
2023-02-06T04:02:31.763Z,0.60
2023-02-06T04:03:31.693Z,0.40
2023-02-06T04:04:31.676Z,0.40
2023-02-06T04:05:31.680Z,0.40
2023-02-06T04:06:31.681Z,0.30
2023-02-06T04:07:31.651Z,0.40
2023-02-06T04:08:31.673Z,0.50
2023-02-06T04:09:31.650Z,0.40
2023-02-06T04:10:31.632Z,0.30
2023-02-06T04:11:31.614Z,0.50
2023-02-06T04:12:31.611Z,0.80
2023-02-06T04:13:31.635Z,0.30
2023-02-06T04:14:31.589Z,0.50
2023-02-06T04:15:31.601Z,0.60
2023-02-06T04:16:31.594Z,0.50
2023-02-06T04:17:46.441Z,0.40
2023-02-06T04:18:31.575Z,0.40
2023-02-06T04:19:31.553Z,0.30
2023-02-06T04:20:31.536Z,0.60
2023-02-06T04:21:31.551Z,0.50
2023-02-06T04:22:31.513Z,0.40
2023-02-06T04:23:31.507Z,0.40
2023-02-06T04:24:31.521Z,0.80
2023-02-06T04:25:31.470Z,0.70
2023-02-06T04:26:31.471Z,0.40
2023-02-06T04:27:31.510Z,0.20
2023-02-06T04:28:31.459Z,0.70
2023-02-06T04:29:31.442Z,0.60
2023-02-06T04:30:31.469Z,0.40
2023-02-06T04:31:31.439Z,0.40
2023-02-06T04:32:31.416Z,0.50
2023-02-06T04:33:31.457Z,0.40
2023-02-06T04:34:31.396Z,0.30
2023-02-06T04:35:31.386Z,0.50
2023-02-06T04:36:31.367Z,0.40
2023-02-06T04:37:31.681Z,0.70
2023-02-06T04:38:31.368Z,0.40
2023-02-06T04:39:31.322Z,0.30
2023-02-06T04:40:31.370Z,0.30
2023-02-06T04:41:31.309Z,0.40
2023-02-06T04:42:31.317Z,0.40
2023-02-06T04:43:31.311Z,0.60
2023-02-06T04:44:31.307Z,0.50
2023-02-06T04:45:31.266Z,0.40
2023-02-06T04:46:31.290Z,0.80
2023-02-06T04:47:31.254Z,0.50
2023-02-06T04:48:31.278Z,0.60
2023-02-06T04:49:31.224Z,0.60
2023-02-06T04:50:31.252Z,0.40
2023-02-06T04:51:31.208Z,0.60
2023-02-06T04:52:31.203Z,0.20
2023-02-06T04:53:31.197Z,0.60
2023-02-06T04:54:32.682Z,0.40
2023-02-06T04:55:31.161Z,0.20
2023-02-06T04:56:31.191Z,0.50
2023-02-06T04:57:31.177Z,0.40
2023-02-06T04:58:31.160Z,0.70
2023-02-06T04:59:31.126Z,0.70
2023-02-06T05:00:31.128Z,0.70
2023-02-06T05:01:31.174Z,0.50
2023-02-06T05:02:31.144Z,0.90
2023-02-06T05:03:31.095Z,1.30
2023-02-06T05:04:31.072Z,1.40
2023-02-06T05:05:31.080Z,0.90
2023-02-06T05:06:31.085Z,0.90
2023-02-06T05:07:31.034Z,0.80
2023-02-06T05:08:31.034Z,0.80
2023-02-06T05:09:31.058Z,0.50
2023-02-06T05:10:31.021Z,0.70
2023-02-06T05:11:31.017Z,0.30
2023-02-06T05:12:31.010Z,0.70
2023-02-06T05:13:30.985Z,0.90
2023-02-06T05:14:31.005Z,1.10
2023-02-06T05:15:30.980Z,1.10
2023-02-06T05:16:30.953Z,0.70
2023-02-06T05:17:30.936Z,0.50
2023-02-06T05:18:30.962Z,1.00
2023-02-06T05:19:30.932Z,1.50
2023-02-06T05:20:30.922Z,1.00
2023-02-06T05:21:30.916Z,0.80
2023-02-06T05:22:30.893Z,0.70
2023-02-06T05:23:30.866Z,0.90
2023-02-06T05:24:30.871Z,0.80
2023-02-06T05:25:30.873Z,0.70
2023-02-06T05:26:30.847Z,0.50
2023-02-06T05:27:30.872Z,0.70
2023-02-06T05:28:30.832Z,0.80
2023-02-06T05:29:30.849Z,1.10
2023-02-06T05:30:30.863Z,1.00
2023-02-06T05:31:30.897Z,1.20
2023-02-06T05:32:30.803Z,1.20
2023-02-06T05:33:30.797Z,0.60
2023-02-06T05:34:30.775Z,0.50
2023-02-06T05:35:30.772Z,1.20
2023-02-06T05:36:30.774Z,0.90
2023-02-06T05:37:30.761Z,0.70
2023-02-06T05:38:30.731Z,0.60
2023-02-06T05:39:30.717Z,0.80
2023-02-06T05:40:30.725Z,0.40
2023-02-06T05:41:30.698Z,0.40
2023-02-06T05:42:30.690Z,1.10
2023-02-06T05:43:30.672Z,0.60
2023-02-06T05:44:30.689Z,0.70
2023-02-06T05:45:30.679Z,0.70
2023-02-06T05:46:30.697Z,0.30
2023-02-06T05:47:30.635Z,0.70
2023-02-06T05:48:30.645Z,0.70
2023-02-06T05:49:30.615Z,0.80
2023-02-06T05:50:30.612Z,0.50
2023-02-06T05:51:30.610Z,0.60
2023-02-06T05:52:30.594Z,0.30
2023-02-06T05:53:30.568Z,0.50
2023-02-06T05:54:30.642Z,0.60
2023-02-06T05:55:30.553Z,0.60
2023-02-06T05:56:30.606Z,0.90
2023-02-06T05:57:30.540Z,0.60
2023-02-06T05:58:30.542Z,0.70
2023-02-06T05:59:30.533Z,1.10
2023-02-06T06:00:30.518Z,0.40
2023-02-06T06:01:30.509Z,0.40
2023-02-06T06:02:30.502Z,1.10
2023-02-06T06:03:33.161Z,0.30
2023-02-06T06:04:30.629Z,0.40
2023-02-06T06:05:30.463Z,0.60
2023-02-06T06:06:30.529Z,0.50
2023-02-06T06:07:30.438Z,0.70
2023-02-06T06:08:30.470Z,0.40
2023-02-06T06:09:30.446Z,0.60
2023-02-06T06:10:30.444Z,0.80
2023-02-06T06:11:30.406Z,0.40
2023-02-06T06:12:30.408Z,0.50
2023-02-06T06:13:30.404Z,0.90
2023-02-06T06:14:30.414Z,0.50
2023-02-06T06:15:30.362Z,0.40
2023-02-06T06:16:30.357Z,0.50
2023-02-06T06:17:30.342Z,0.40
2023-02-06T06:18:30.344Z,0.50
2023-02-06T06:19:30.315Z,0.40
2023-02-06T06:20:30.368Z,0.80
2023-02-06T06:21:30.295Z,0.40
2023-02-06T06:22:30.326Z,0.60
2023-02-06T06:23:30.290Z,0.60
2023-02-06T06:24:30.282Z,0.50
2023-02-06T06:25:30.263Z,0.50
2023-02-06T06:26:30.255Z,0.60
2023-02-06T06:27:30.252Z,0.50
2023-02-06T06:28:30.233Z,0.90
2023-02-06T06:29:30.222Z,0.60
2023-02-06T06:30:30.308Z,0.60
2023-02-06T06:31:30.235Z,0.40
2023-02-06T06:32:30.202Z,0.60
2023-02-06T06:33:30.123Z,0.70
2023-02-06T06:34:30.175Z,0.30
2023-02-06T06:35:30.119Z,0.80
2023-02-06T06:36:30.113Z,0.50
2023-02-06T06:37:30.066Z,0.70
2023-02-06T06:38:30.076Z,0.60
2023-02-06T06:39:30.112Z,0.50
2023-02-06T06:40:30.039Z,0.80
2023-02-06T06:41:30.058Z,0.60
2023-02-06T06:42:30.059Z,0.40
2023-02-06T06:43:30.040Z,0.40
2023-02-06T06:44:30.041Z,0.60
2023-02-06T06:45:30.068Z,0.60
2023-02-06T06:46:29.996Z,0.50
2023-02-06T06:47:30.005Z,0.70
2023-02-06T06:48:29.967Z,0.50
2023-02-06T06:49:29.951Z,0.80
2023-02-06T06:50:29.977Z,0.80
2023-02-06T06:51:30.187Z,0.70
2023-02-06T06:52:29.946Z,0.90
2023-02-06T06:53:29.917Z,0.90
2023-02-06T06:54:29.911Z,0.80
2023-02-06T06:55:29.886Z,1.00
2023-02-06T06:56:29.899Z,0.80
2023-02-06T06:57:29.880Z,1.40
2023-02-06T06:58:30.159Z,1.50
2023-02-06T06:59:29.867Z,1.20
2023-02-06T07:00:29.964Z,2.50
2023-02-06T07:01:29.835Z,0.90
2023-02-06T07:02:29.842Z,1.00
2023-02-06T07:03:29.805Z,1.50
2023-02-06T07:04:29.831Z,1.30
2023-02-06T07:05:29.796Z,1.50
2023-02-06T07:06:29.806Z,0.70
2023-02-06T07:07:29.793Z,0.60
2023-02-06T07:08:29.800Z,0.80
2023-02-06T07:09:29.760Z,0.50
2023-02-06T07:10:29.811Z,0.70
2023-02-06T07:11:29.727Z,2.10
2023-02-06T07:12:29.752Z,1.90
2023-02-06T07:13:29.735Z,1.90
2023-02-06T07:14:29.714Z,1.30
2023-02-06T07:15:29.706Z,1.80
2023-02-06T07:16:29.743Z,1.60
2023-02-06T07:17:29.689Z,1.70
2023-02-06T07:18:29.684Z,1.40
2023-02-06T07:19:29.651Z,0.80
2023-02-06T07:20:29.693Z,1.80
2023-02-06T07:21:29.635Z,2.00
2023-02-06T07:22:29.626Z,1.10
2023-02-06T07:23:29.627Z,1.50
2023-02-06T07:24:29.613Z,1.00
2023-02-06T07:25:29.610Z,1.60
2023-02-06T07:26:29.614Z,1.30
2023-02-06T07:27:29.596Z,1.10
2023-02-06T07:28:29.563Z,1.30
2023-02-06T07:29:29.600Z,1.20
2023-02-06T07:30:29.568Z,1.80
2023-02-06T07:31:29.633Z,1.20
2023-02-06T07:32:29.540Z,1.30
2023-02-06T07:33:29.518Z,1.70
2023-02-06T07:34:29.520Z,0.80
2023-02-06T07:35:29.494Z,1.20
2023-02-06T07:36:29.484Z,1.60
2023-02-06T07:37:29.480Z,1.20
2023-02-06T07:38:29.466Z,1.90
2023-02-06T07:39:29.462Z,18.80
2023-02-06T07:40:43.980Z,16.40
2023-02-06T07:41:29.446Z,6.50
2023-02-06T07:42:29.425Z,8.80
2023-02-06T07:43:29.420Z,7.90
2023-02-06T07:44:29.420Z,2.00
2023-02-06T07:45:29.397Z,4.60
2023-02-06T07:46:29.416Z,8.10
2023-02-06T07:47:29.412Z,1.10
2023-02-06T07:48:29.361Z,1.00
2023-02-06T07:49:29.378Z,1.30
2023-02-06T07:50:29.386Z,1.00
2023-02-06T07:51:29.339Z,1.10
2023-02-06T07:52:29.329Z,1.40
2023-02-06T07:53:29.342Z,0.90
2023-02-06T07:54:29.441Z,1.00
2023-02-06T07:55:29.290Z,1.00
2023-02-06T07:56:29.326Z,1.20
2023-02-06T07:57:29.292Z,1.00
2023-02-06T07:58:29.267Z,1.40
2023-02-06T07:59:29.246Z,1.10
2023-02-06T08:00:29.255Z,1.30
2023-02-06T08:01:29.334Z,1.40
2023-02-06T08:02:29.219Z,1.20
2023-02-06T08:03:29.206Z,1.10
2023-02-06T08:04:29.403Z,1.40
2023-02-06T08:05:29.212Z,1.00
2023-02-06T08:06:29.194Z,1.00
2023-02-06T08:07:29.165Z,1.30
2023-02-06T08:08:29.145Z,1.70
2023-02-06T08:09:29.156Z,1.60
2023-02-06T08:10:29.142Z,1.40
2023-02-06T08:11:29.126Z,1.10
2023-02-06T08:12:29.212Z,0.80
2023-02-06T08:13:29.177Z,0.70
2023-02-06T08:14:29.095Z,1.30
2023-02-06T08:15:29.091Z,1.20
2023-02-06T08:16:29.074Z,1.00
2023-02-06T08:17:29.075Z,1.20
2023-02-06T08:18:29.062Z,1.30
2023-02-06T08:19:29.060Z,1.70
2023-02-06T08:20:29.020Z,1.40
2023-02-06T08:21:29.022Z,2.50
2023-02-06T08:22:29.047Z,0.60
2023-02-06T08:23:29.022Z,1.20
2023-02-06T08:24:29.013Z,1.10
2023-02-06T08:25:29.091Z,1.50
2023-02-06T08:26:28.974Z,1.50
2023-02-06T08:27:28.958Z,1.40
2023-02-06T08:28:29.024Z,1.30
2023-02-06T08:29:28.952Z,1.70
2023-02-06T08:30:29.221Z,2.70
2023-02-06T08:31:29.034Z,2.40
2023-02-06T08:32:28.904Z,1.20
2023-02-06T08:33:28.927Z,0.80
2023-02-06T08:34:28.897Z,1.60
2023-02-06T08:35:28.895Z,0.90
2023-02-06T08:36:28.874Z,1.50
2023-02-06T08:37:28.867Z,0.50
2023-02-06T08:38:28.855Z,1.10
2023-02-06T08:39:28.933Z,0.70
2023-02-06T08:40:28.820Z,1.20
2023-02-06T08:41:28.851Z,1.10
2023-02-06T08:42:28.808Z,1.10
2023-02-06T08:43:28.809Z,1.00
2023-02-06T08:44:28.804Z,0.80
2023-02-06T08:45:28.896Z,0.70
2023-02-06T08:46:28.894Z,1.10
2023-02-06T08:47:28.765Z,1.20
2023-02-06T08:48:28.770Z,1.20
2023-02-06T08:49:28.772Z,1.10
2023-02-06T08:50:28.770Z,1.30
2023-02-06T08:51:28.706Z,1.40
2023-02-06T08:52:28.738Z,0.90
2023-02-06T08:53:28.737Z,0.90
2023-02-06T08:54:28.685Z,1.10
2023-02-06T08:55:28.829Z,1.00
2023-02-06T08:56:28.677Z,1.20
2023-02-06T08:57:28.661Z,0.90
2023-02-06T08:58:28.652Z,1.30
2023-02-06T08:59:28.634Z,1.10
2023-02-06T09:00:28.627Z,1.00
2023-02-06T09:01:28.680Z,1.30
2023-02-06T09:02:28.652Z,0.70
2023-02-06T09:03:28.614Z,1.30
2023-02-06T09:04:28.576Z,1.10
2023-02-06T09:05:28.579Z,1.40
2023-02-06T09:06:28.576Z,1.20
2023-02-06T09:07:28.560Z,1.20
2023-02-06T09:08:28.532Z,1.10
2023-02-06T09:09:28.541Z,1.60
2023-02-06T09:10:28.541Z,1.30
2023-02-06T09:11:28.536Z,1.70
2023-02-06T09:12:28.500Z,1.50
2023-02-06T09:13:28.494Z,1.70
2023-02-06T09:14:28.480Z,1.10
2023-02-06T09:15:28.491Z,1.50
2023-02-06T09:16:28.461Z,1.40
2023-02-06T09:17:28.464Z,1.00
2023-02-06T09:18:28.439Z,1.20
2023-02-06T09:19:28.449Z,1.50
2023-02-06T09:20:28.409Z,1.30
2023-02-06T09:21:28.412Z,1.30
2023-02-06T09:22:28.414Z,1.20
2023-02-06T09:23:28.378Z,1.30
2023-02-06T09:24:28.457Z,1.30
2023-02-06T09:25:28.559Z,1.40
2023-02-06T09:26:28.353Z,1.30
2023-02-06T09:27:28.371Z,1.20
2023-02-06T09:28:28.332Z,0.90
2023-02-06T09:29:28.341Z,1.20
2023-02-06T09:30:28.368Z,1.30
2023-02-06T09:31:28.340Z,1.20
2023-02-06T09:32:28.282Z,1.10
2023-02-06T09:33:28.292Z,1.20
2023-02-06T09:34:28.653Z,1.20
2023-02-06T09:35:28.264Z,1.40
2023-02-06T09:36:28.300Z,1.30
2023-02-06T09:37:28.244Z,1.40
2023-02-06T09:38:28.219Z,1.30
2023-02-06T09:39:28.263Z,1.60
2023-02-06T09:40:28.196Z,1.60
2023-02-06T09:41:28.199Z,1.20
2023-02-06T09:42:28.185Z,1.00
2023-02-06T09:44:34.742Z,2.20
2023-02-06T09:45:28.156Z,2.00
2023-02-06T09:46:28.281Z,1.80
2023-02-06T09:47:28.131Z,1.10
2023-02-06T09:48:28.133Z,0.80
2023-02-06T09:49:28.123Z,1.30
2023-02-06T09:50:28.087Z,1.70
2023-02-06T09:51:28.129Z,1.40
2023-02-06T09:52:28.068Z,1.90
2023-02-06T09:53:29.447Z,2.20
2023-02-06T09:54:28.072Z,1.70
2023-02-06T09:55:28.076Z,1.50
2023-02-06T09:56:28.050Z,2.00
2023-02-06T09:57:28.041Z,1.50
2023-02-06T09:58:28.013Z,1.70
2023-02-06T09:59:28.014Z,1.20
2023-02-06T10:00:27.993Z,1.40
2023-02-06T10:01:28.029Z,1.50
2023-02-06T10:02:27.996Z,1.40
2023-02-06T10:03:28.012Z,1.30
2023-02-06T10:04:27.984Z,2.50
2023-02-06T10:05:27.945Z,1.60
2023-02-06T10:06:27.937Z,1.40
2023-02-06T10:07:27.933Z,1.40
2023-02-06T10:08:27.910Z,1.60
2023-02-06T10:09:27.952Z,2.10
2023-02-06T10:10:27.893Z,1.50
2023-02-06T10:11:27.910Z,1.50
2023-02-06T10:12:27.879Z,2.10
2023-02-06T10:13:27.858Z,1.60
2023-02-06T10:14:28.376Z,1.40
2023-02-06T10:15:27.853Z,1.60
2023-02-06T10:16:27.860Z,1.40
2023-02-06T10:17:27.824Z,1.20
2023-02-06T10:18:27.833Z,2.10
2023-02-06T10:19:27.804Z,1.80
2023-02-06T10:20:27.797Z,1.30
2023-02-06T10:21:27.804Z,2.20
2023-02-06T10:22:27.781Z,1.50
2023-02-06T10:23:27.774Z,1.50
2023-02-06T10:24:27.785Z,1.90
2023-02-06T10:25:27.769Z,1.30
2023-02-06T10:26:27.725Z,1.40
2023-02-06T10:27:27.724Z,1.90
2023-02-06T10:28:27.716Z,1.80
2023-02-06T10:29:27.707Z,1.80
2023-02-06T10:30:27.688Z,1.30
2023-02-06T10:31:27.782Z,1.10
2023-02-06T10:32:27.708Z,1.50
2023-02-06T10:33:27.685Z,1.90
2023-02-06T10:34:27.637Z,2.20
2023-02-06T10:35:27.664Z,2.10
2023-02-06T10:36:27.657Z,1.60
2023-02-06T10:37:27.648Z,1.60
2023-02-06T10:38:27.619Z,2.10
2023-02-06T10:39:27.617Z,1.80
2023-02-06T10:40:27.592Z,2.40
2023-02-06T10:41:27.617Z,2.30
2023-02-06T10:42:27.559Z,2.30
2023-02-06T10:43:27.575Z,2.10
2023-02-06T10:44:27.573Z,2.00
2023-02-06T10:45:27.681Z,2.10
2023-02-06T10:46:27.526Z,2.40
2023-02-06T10:47:27.523Z,2.30
2023-02-06T10:48:27.519Z,2.10
2023-02-06T10:49:27.514Z,2.40
2023-02-06T10:50:27.480Z,3.00
2023-02-06T10:51:27.524Z,2.20
2023-02-06T10:52:27.471Z,2.20
2023-02-06T10:53:27.469Z,2.00
2023-02-06T10:54:27.488Z,1.50
2023-02-06T10:55:27.435Z,1.40
2023-02-06T10:56:27.449Z,2.10
2023-02-06T10:57:27.416Z,1.80
2023-02-06T10:58:27.395Z,1.70
2023-02-06T10:59:27.406Z,2.40
2023-02-06T11:00:27.489Z,2.10
2023-02-06T11:01:27.429Z,1.50
2023-02-06T11:02:27.389Z,2.10
2023-02-06T11:03:27.356Z,1.90
2023-02-06T11:04:27.377Z,1.90
2023-02-06T11:05:27.380Z,1.40
2023-02-06T11:06:27.311Z,1.40
2023-02-06T11:07:27.381Z,2.60
2023-02-06T11:08:27.287Z,1.10
2023-02-06T11:09:27.335Z,1.70
2023-02-06T11:10:27.336Z,1.90
2023-02-06T11:11:27.272Z,1.50
2023-02-06T11:12:27.258Z,0.80
2023-02-06T11:13:27.250Z,1.60
2023-02-06T11:14:27.248Z,1.10
2023-02-06T11:15:27.260Z,1.50
2023-02-06T11:16:27.289Z,0.80
2023-02-06T11:17:27.270Z,1.00
2023-02-06T11:18:27.213Z,1.60
2023-02-06T11:19:27.185Z,1.60
2023-02-06T11:20:27.276Z,1.40
2023-02-06T11:21:27.176Z,2.70
2023-02-06T11:22:27.145Z,2.30
2023-02-06T11:23:27.150Z,1.70
2023-02-06T11:24:27.150Z,1.20
2023-02-06T11:25:27.161Z,2.50
2023-02-06T11:26:27.121Z,1.90
2023-02-06T11:27:27.105Z,1.40
2023-02-06T11:28:27.090Z,1.20
2023-02-06T11:29:27.081Z,1.40
2023-02-06T11:30:27.080Z,1.30
2023-02-06T11:31:27.114Z,2.00
2023-02-06T11:32:27.043Z,1.60
2023-02-06T11:33:27.052Z,1.50
2023-02-06T11:34:27.037Z,1.40
2023-02-06T11:35:27.020Z,1.10
2023-02-06T11:36:27.034Z,0.90
2023-02-06T11:37:27.004Z,1.90
2023-02-06T11:38:26.997Z,1.20
2023-02-06T11:39:26.974Z,1.60
2023-02-06T11:40:26.966Z,0.70
2023-02-06T11:41:26.975Z,1.30
2023-02-06T11:42:26.948Z,1.10
2023-02-06T11:43:26.935Z,1.00
2023-02-06T11:44:26.932Z,1.10
2023-02-06T11:45:26.947Z,1.40
2023-02-06T11:46:26.936Z,1.10
2023-02-06T11:47:26.906Z,1.00
2023-02-06T11:48:26.890Z,0.90
2023-02-06T11:49:26.869Z,1.40
2023-02-06T11:50:27.504Z,1.70
2023-02-06T11:51:26.849Z,1.20
2023-02-06T11:52:26.852Z,1.30
2023-02-06T11:53:26.992Z,1.50
2023-02-06T11:54:26.855Z,1.30
2023-02-06T11:55:26.829Z,1.50
2023-02-06T11:56:26.810Z,1.80
2023-02-06T11:57:26.788Z,1.50
2023-02-06T11:58:26.804Z,1.20
2023-02-06T11:59:26.796Z,2.00
2023-02-06T12:00:26.760Z,1.20
2023-02-06T12:01:26.765Z,1.50
2023-02-06T12:02:26.790Z,1.40
2023-02-06T12:03:26.771Z,1.60
2023-02-06T12:04:26.742Z,1.20
2023-02-06T12:05:26.727Z,0.90
2023-02-06T12:06:27.483Z,1.10
2023-02-06T12:07:26.712Z,1.20
2023-02-06T12:08:26.693Z,1.20
2023-02-06T12:09:26.697Z,1.20
2023-02-06T12:10:26.672Z,1.50
2023-02-06T12:11:26.636Z,1.40
2023-02-06T12:12:26.642Z,1.00
2023-02-06T12:13:26.636Z,2.60
2023-02-06T12:14:26.642Z,1.30
2023-02-06T12:15:46.000Z,1.10
2023-02-06T12:16:26.650Z,1.40
2023-02-06T12:17:26.608Z,1.40
2023-02-06T12:18:26.722Z,1.00
2023-02-06T12:19:26.560Z,1.30
2023-02-06T12:20:26.902Z,1.20
2023-02-06T12:21:26.553Z,1.60
2023-02-06T12:22:26.535Z,1.30
2023-02-06T12:23:26.524Z,2.60
2023-02-06T12:24:26.514Z,1.30
2023-02-06T12:25:26.519Z,1.70
2023-02-06T12:26:26.508Z,1.10
2023-02-06T12:27:26.474Z,1.40
2023-02-06T12:28:26.482Z,1.20
2023-02-06T12:29:26.445Z,0.70
2023-02-06T12:30:26.448Z,0.90
2023-02-06T12:31:26.531Z,1.50
2023-02-06T12:32:26.457Z,1.90
2023-02-06T12:33:26.435Z,1.40
2023-02-06T12:34:26.412Z,1.30
2023-02-06T12:35:26.388Z,2.20
2023-02-06T12:36:26.394Z,1.70
2023-02-06T12:37:26.365Z,1.10
2023-02-06T12:38:26.386Z,1.50
2023-02-06T12:39:26.394Z,1.30
2023-02-06T12:40:27.226Z,1.70
2023-02-06T12:41:26.317Z,1.50
2023-02-06T12:42:26.310Z,2.50
2023-02-06T12:43:26.292Z,1.50
2023-02-06T12:44:26.295Z,1.60
2023-02-06T12:45:26.290Z,1.10
2023-02-06T12:46:26.291Z,1.30
2023-02-06T12:47:26.263Z,1.60
2023-02-06T12:48:26.281Z,1.60
2023-02-06T12:49:26.261Z,1.40
2023-02-06T12:50:26.275Z,1.30
2023-02-06T12:51:26.221Z,1.50
2023-02-06T12:52:26.230Z,1.40
2023-02-06T12:53:26.204Z,1.50
2023-02-06T12:54:26.192Z,1.70
2023-02-06T12:55:26.183Z,1.20
2023-02-06T12:56:26.184Z,1.20
2023-02-06T12:57:26.160Z,1.60
2023-02-06T12:58:26.168Z,1.50
2023-02-06T12:59:26.128Z,1.20
2023-02-06T13:00:26.130Z,1.60
2023-02-06T13:01:31.115Z,1.40
2023-02-06T13:02:26.261Z,1.30
2023-02-06T13:03:26.099Z,1.50
2023-02-06T13:04:26.110Z,1.70
2023-02-06T13:05:26.097Z,1.50
2023-02-06T13:06:26.076Z,1.50
2023-02-06T13:07:26.165Z,1.10
2023-02-06T13:08:26.853Z,1.30
2023-02-06T13:09:26.044Z,1.70
2023-02-06T13:10:26.073Z,1.00
2023-02-06T13:11:26.066Z,1.40
2023-02-06T13:12:26.030Z,1.00
2023-02-06T13:13:25.983Z,1.70
2023-02-06T13:14:26.024Z,1.60
2023-02-06T13:15:25.969Z,1.40
2023-02-06T13:16:25.976Z,1.80
2023-02-06T13:17:25.945Z,1.80
2023-02-06T13:18:25.981Z,1.50
2023-02-06T13:19:25.935Z,1.20